Comox Airport
CYQQ : now visible

Airfield :











YOU CAN JOIN US ON...

 
LOGIN :

Register | Disclaimer

   EN    FR    IT 

 









Legend :    VFR   Marginal VFR   IFR   Intensive IFR   Very Intensive IFR
Visi :
Ceiling :
>= 8 km
>= 3000ft
5 to 8 km
1000 to 3000 ft
1500m to 5 km
500 to 1000 ft
800 to 1500m
200 to 500 ft
< 800m
< 200 ft
Symbols :   Thunderstorms  Fog  Heavy snow  Heavy precipitations  Wind > 20 kt







- Airport Elevation : 84 ft
- IATA code : YQQ


CYQQ - Comox

CURRENT METAR :
  • 211600Z 19002KT 20SM OVC009 14/13 A3011 RMK ST8 CIG VRB 6-12 SLP197

EXPIRED METARs :
  • 211500Z 00000KT 20SM BKN010 OVC037 14/12 A3011 RMK ST5SC3 CIG VRB 7-13 SLP197

TAF AMD TAF CYQQ
Valid from the 21 at 16:00 until the 22 at 12:00 UTC


211614Z 2116/2212 18005KT P6SM OVC008
TEMPO 2116/2120 SCT010 OVC040
BECMG 2118/2120 14012KT
FM212000 14015KT P6SM FEW025 BKN040 OVC250
FM212300 14015G25KT P6SM SCT015 OVC030
TEMPO 2123/2201 P6SM -RA
FM220100 14018G28KT 6SM -RA BR SCT008 BKN015 OVC030 RMK NXT FCST BY 211800Z
No reported NOTAMs for that airfield.



MET'MAP, your aeronautical weather chart ! - Copyright ORBIFLY December 2007 - Disclaimer

ORBIFLY MET'MAP TEAM :

Programming & Development : Alexandra Zaïnal
Concept & Development : Baudouin d'Aumeries
Co-Development & Prog : Marc-Olivier Méhu
Technical & hardware support : Manuel Goepfert

Contact : metmap@orbifly.com




SOURCES & CREDITS :

   NOAA       Earth
Advisory